createdAt,value
2022-10-31T00:01:28.397Z,96688.91
2022-10-31T00:03:56.515Z,96685.09
2022-10-31T00:06:24.578Z,96690.19
2022-10-31T00:08:55.474Z,96692.78
2022-10-31T00:11:25.115Z,96695.69
2022-10-31T00:13:52.852Z,96691.16
2022-10-31T00:16:22.565Z,96688.47
2022-10-31T00:18:51.343Z,96683.28
2022-10-31T00:21:19.885Z,96675.66
2022-10-31T00:23:47.640Z,96683.47
2022-10-31T00:26:15.372Z,96686.25
2022-10-31T00:28:44.657Z,96677.63
2022-10-31T00:31:14.022Z,96672.84
2022-10-31T00:33:42.653Z,96681.63
2022-10-31T00:36:14.090Z,96684.91
2022-10-31T00:38:42.562Z,96680.41
2022-10-31T00:41:10.363Z,96680.22
2022-10-31T00:43:40.033Z,96689.47
2022-10-31T00:46:09.125Z,96686.84
2022-10-31T00:48:36.841Z,96691.38
2022-10-31T00:51:05.117Z,96694.16
2022-10-31T00:53:33.134Z,96695.34
2022-10-31T00:56:00.826Z,96689.56
2022-10-31T00:58:28.584Z,96699.56
2022-10-31T01:00:56.903Z,96691.47
2022-10-31T01:03:28.251Z,96692.03
2022-10-31T01:06:00.936Z,96697.50
2022-10-31T01:08:29.941Z,96696.31
2022-10-31T01:11:06.141Z,96685.91
2022-10-31T01:13:34.506Z,96692.34
2022-10-31T01:16:03.603Z,96694.94
2022-10-31T01:18:32.658Z,96690.56
2022-10-31T01:21:02.209Z,96688.38
2022-10-31T01:23:30.555Z,96690.00
2022-10-31T01:26:09.459Z,96695.97
2022-10-31T01:28:39.429Z,96692.16
2022-10-31T01:31:09.284Z,96704.56
2022-10-31T01:33:39.131Z,96706.19
2022-10-31T01:36:15.979Z,96706.75
2022-10-31T01:38:43.730Z,96700.78
2022-10-31T01:41:13.917Z,96703.19
2022-10-31T01:43:47.474Z,96716.09
2022-10-31T01:46:18.088Z,96708.59
2022-10-31T01:48:48.463Z,96715.97
2022-10-31T01:51:19.590Z,96713.34
2022-10-31T01:53:48.456Z,96711.31
2022-10-31T01:56:18.644Z,96701.47
2022-10-31T01:58:48.202Z,96704.59
2022-10-31T02:01:19.356Z,96700.88
2022-10-31T02:03:49.606Z,96707.47
2022-10-31T02:06:29.402Z,96700.47
2022-10-31T02:08:59.958Z,96706.09
2022-10-31T02:11:29.831Z,96696.16
2022-10-31T02:13:58.290Z,96708.56
2022-10-31T02:16:26.314Z,96699.06
2022-10-31T02:18:56.447Z,96703.09
2022-10-31T02:21:29.479Z,96694.78
2022-10-31T02:24:46.498Z,96693.41
2022-10-31T02:27:42.906Z,96689.59
2022-10-31T02:30:18.360Z,96701.19
2022-10-31T02:32:59.581Z,96692.59
2022-10-31T02:35:39.710Z,96693.91
2022-10-31T02:38:21.010Z,96690.41
2022-10-31T02:40:55.401Z,96692.78
2022-10-31T02:43:53.390Z,96697.13
2022-10-31T02:46:30.581Z,96692.78
2022-10-31T02:49:08.037Z,96698.19
2022-10-31T02:51:36.389Z,96691.19
2022-10-31T02:54:05.172Z,96687.78
2022-10-31T02:56:32.910Z,96687.56
2022-10-31T02:59:03.824Z,96691.13
2022-10-31T03:01:47.549Z,96685.31
2022-10-31T03:05:00.084Z,96691.34
2022-10-31T03:07:37.396Z,96690.38
2022-10-31T03:10:12.430Z,96689.72
2022-10-31T03:12:48.636Z,96686.00
2022-10-31T03:15:24.401Z,96688.19
2022-10-31T03:17:59.517Z,96693.06
2022-10-31T03:20:36.167Z,96690.41
2022-10-31T03:23:06.739Z,96685.56
2022-10-31T03:25:38.466Z,96682.66
2022-10-31T03:28:09.171Z,96682.88
2022-10-31T03:30:40.754Z,96693.16
2022-10-31T03:33:12.549Z,96689.50
2022-10-31T03:35:45.025Z,96688.47
2022-10-31T03:38:15.013Z,96687.97
2022-10-31T03:40:47.595Z,96687.66
2022-10-31T03:43:19.500Z,96690.34
2022-10-31T03:45:49.062Z,96682.28
2022-10-31T03:48:19.834Z,96680.38
2022-10-31T03:50:54.675Z,96684.09
2022-10-31T03:53:27.899Z,96681.13
2022-10-31T03:56:01.500Z,96681.91
2022-10-31T03:58:34.390Z,96681.91
2022-10-31T04:01:04.344Z,96677.13
2022-10-31T04:03:35.187Z,96674.50
2022-10-31T04:06:08.518Z,96677.81
2022-10-31T04:08:44.416Z,96672.41
2022-10-31T04:11:20.197Z,96673.97
2022-10-31T04:13:56.814Z,96670.22
2022-10-31T04:16:27.004Z,96671.88
2022-10-31T04:18:54.980Z,96671.72
2022-10-31T04:21:28.826Z,96661.00
2022-10-31T04:23:57.544Z,96669.66
2022-10-31T04:26:27.806Z,96668.88
2022-10-31T04:28:55.544Z,96675.06
2022-10-31T04:31:23.468Z,96679.41
2022-10-31T04:33:51.655Z,96677.81
2022-10-31T04:36:19.371Z,96676.47
2022-10-31T04:38:48.475Z,96669.19
2022-10-31T04:41:30.521Z,96669.44
2022-10-31T04:44:03.624Z,96662.69
2022-10-31T04:46:31.630Z,96667.47
2022-10-31T04:49:00.258Z,96660.75
2022-10-31T04:51:28.251Z,96661.00
2022-10-31T04:53:58.045Z,96659.06
2022-10-31T04:56:44.189Z,96657.50
2022-10-31T04:59:17.027Z,96660.75
2022-10-31T05:01:50.671Z,96651.84
2022-10-31T05:04:22.991Z,96664.78
2022-10-31T05:06:51.243Z,96658.38
2022-10-31T05:09:20.467Z,96657.63
2022-10-31T05:11:48.294Z,96664.97
2022-10-31T05:14:35.969Z,96666.31
2022-10-31T05:17:22.484Z,96673.59
2022-10-31T05:20:09.486Z,96659.91
2022-10-31T05:23:05.992Z,96652.84
2022-10-31T05:25:35.726Z,96661.72
2022-10-31T05:28:05.781Z,96653.91
2022-10-31T05:30:35.101Z,96654.44
2022-10-31T05:33:03.705Z,96646.84
2022-10-31T05:35:50.398Z,96646.06
2022-10-31T05:38:37.026Z,96645.25
2022-10-31T05:41:23.862Z,96647.66
2022-10-31T05:43:51.793Z,96645.25
2022-10-31T05:46:24.279Z,96641.53
2022-10-31T05:49:10.387Z,96635.66
2022-10-31T05:51:56.844Z,96641.59
2022-10-31T05:54:33.295Z,96640.00
2022-10-31T05:57:02.446Z,96648.34
2022-10-31T05:59:30.328Z,96641.13
2022-10-31T06:01:59.524Z,96639.13
2022-10-31T06:04:59.521Z,96650.44
2022-10-31T06:07:28.325Z,96650.16
2022-10-31T06:09:56.584Z,96653.13
2022-10-31T06:12:25.802Z,96652.09
2022-10-31T06:15:28.720Z,96645.66
2022-10-31T06:18:02.583Z,96647.84
2022-10-31T06:20:34.766Z,96648.34
2022-10-31T06:23:05.455Z,96645.63
2022-10-31T06:25:34.925Z,96651.75
2022-10-31T06:28:04.406Z,96639.06
2022-10-31T06:30:55.412Z,96642.25
2022-10-31T06:33:24.023Z,96640.59
2022-10-31T06:35:57.151Z,96645.44
2022-10-31T06:38:25.315Z,96644.34
2022-10-31T06:40:53.024Z,96634.59
2022-10-31T06:43:31.245Z,96633.75
2022-10-31T06:46:18.467Z,96639.34
2022-10-31T06:49:06.141Z,96636.09
2022-10-31T06:51:43.777Z,96640.13
2022-10-31T06:54:11.508Z,96650.81
2022-10-31T06:56:39.514Z,96646.19
2022-10-31T06:59:08.743Z,96642.63
2022-10-31T07:01:56.697Z,96652.00
2022-10-31T07:04:25.348Z,96647.16
2022-10-31T07:06:53.579Z,96653.84
2022-10-31T07:09:21.667Z,96658.34
2022-10-31T07:11:49.454Z,96650.25
2022-10-31T07:14:18.562Z,96653.69
2022-10-31T07:16:49.836Z,96662.19
2022-10-31T07:19:18.536Z,96655.44
2022-10-31T07:21:46.412Z,96659.16
2022-10-31T07:24:17.314Z,96661.53
2022-10-31T07:26:46.906Z,96654.69
2022-10-31T07:29:15.562Z,96650.03
2022-10-31T07:31:45.056Z,96651.28
2022-10-31T07:34:19.390Z,96649.00
2022-10-31T07:37:09.629Z,96659.63
2022-10-31T07:39:37.597Z,96653.59
2022-10-31T07:42:05.697Z,96652.63
2022-10-31T07:44:34.500Z,96653.56
2022-10-31T07:47:22.281Z,96652.91
2022-10-31T07:50:09.305Z,96644.94
2022-10-31T07:53:05.079Z,96649.38
2022-10-31T07:55:54.314Z,96648.09
2022-10-31T07:58:28.827Z,96642.50
2022-10-31T08:01:00.397Z,96651.44
2022-10-31T08:03:37.556Z,96645.06
2022-10-31T08:06:26.371Z,96636.47
2022-10-31T08:09:13.870Z,96640.56
2022-10-31T08:11:42.353Z,96636.88
2022-10-31T08:14:10.078Z,96642.06
2022-10-31T08:16:37.822Z,96633.78
2022-10-31T08:19:08.629Z,96635.66
2022-10-31T08:21:39.431Z,96628.13
2022-10-31T08:24:09.708Z,96639.50
2022-10-31T08:26:37.711Z,96625.28
2022-10-31T08:29:08.226Z,96621.53
2022-10-31T08:31:42.631Z,96632.09
2022-10-31T08:34:30.479Z,96625.84
2022-10-31T08:37:20.777Z,96620.38
2022-10-31T08:39:53.094Z,96617.13
2022-10-31T08:42:22.053Z,96618.44
2022-10-31T08:44:49.778Z,96613.56
2022-10-31T08:47:21.177Z,96612.66
2022-10-31T08:49:50.726Z,96609.53
2022-10-31T08:52:18.735Z,96610.28
2022-10-31T08:54:49.122Z,96604.75
2022-10-31T08:57:35.711Z,96610.84
2022-10-31T09:00:03.585Z,96606.56
2022-10-31T09:02:43.142Z,96605.78
2022-10-31T09:05:12.210Z,96609.16
2022-10-31T09:07:39.950Z,96608.19
2022-10-31T09:10:08.399Z,96604.19
2022-10-31T09:12:38.509Z,96596.34
2022-10-31T09:15:24.867Z,96591.09
2022-10-31T09:18:05.490Z,96587.69
2022-10-31T09:20:53.090Z,96580.16
2022-10-31T09:23:22.558Z,96580.44
2022-10-31T09:25:52.242Z,96584.97
2022-10-31T09:28:47.224Z,96584.44
2022-10-31T09:31:16.809Z,96575.91
2022-10-31T09:33:55.985Z,96582.25
2022-10-31T09:36:48.471Z,96577.22
2022-10-31T09:39:20.831Z,96572.00
2022-10-31T09:42:10.695Z,96576.25
2022-10-31T09:44:51.565Z,96568.81
2022-10-31T09:47:47.039Z,96577.84
2022-10-31T09:50:43.369Z,96567.94
2022-10-31T09:53:44.107Z,96569.78
2022-10-31T09:56:18.543Z,96569.34
2022-10-31T09:58:49.653Z,96572.47
2022-10-31T10:01:32.436Z,96573.19
2022-10-31T10:04:04.831Z,96576.25
2022-10-31T10:06:53.925Z,96571.25
2022-10-31T10:09:51.795Z,96570.84
2022-10-31T10:13:03.579Z,96576.06
2022-10-31T10:15:52.570Z,96563.38
2022-10-31T10:18:29.139Z,96560.09
2022-10-31T10:21:11.756Z,96567.25
2022-10-31T10:23:53.350Z,96561.13
2022-10-31T10:26:24.221Z,96572.03
2022-10-31T10:28:58.306Z,96570.22
2022-10-31T10:31:30.888Z,96567.59
2022-10-31T10:34:04.620Z,96564.41
2022-10-31T10:36:38.847Z,96555.75
2022-10-31T10:39:13.966Z,96559.94
2022-10-31T10:41:46.803Z,96563.03
2022-10-31T10:44:16.579Z,96567.75
2022-10-31T10:47:04.136Z,96551.16
2022-10-31T10:49:38.839Z,96558.16
2022-10-31T10:52:35.213Z,96559.09
2022-10-31T10:55:13.139Z,96551.03
2022-10-31T10:57:56.101Z,96543.41
2022-10-31T11:00:25.374Z,96537.03
2022-10-31T11:02:54.096Z,96549.72
2022-10-31T11:05:30.695Z,96541.53
2022-10-31T11:07:58.409Z,96537.47
2022-10-31T11:10:26.434Z,96533.41
2022-10-31T11:13:06.229Z,96531.72
2022-10-31T11:15:38.902Z,96525.38
2022-10-31T11:18:07.233Z,96537.78
2022-10-31T11:20:37.547Z,96520.97
2022-10-31T11:23:18.162Z,96529.69
2022-10-31T11:25:54.779Z,96522.28
2022-10-31T11:28:24.191Z,96523.84
2022-10-31T11:30:55.476Z,96524.06
2022-10-31T11:33:29.845Z,96526.44
2022-10-31T11:35:59.252Z,96521.25
2022-10-31T11:38:35.259Z,96522.66
2022-10-31T11:41:11.871Z,96519.56
2022-10-31T11:43:42.174Z,96515.41
2022-10-31T11:46:17.529Z,96504.41
2022-10-31T11:48:49.824Z,96499.91
2022-10-31T11:51:23.076Z,96491.16
2022-10-31T11:53:56.939Z,96493.06
2022-10-31T11:56:28.477Z,96494.16
2022-10-31T11:59:05.120Z,96490.22
2022-10-31T12:01:34.506Z,96487.84
2022-10-31T12:04:08.935Z,96496.97
2022-10-31T12:06:38.109Z,96492.66
2022-10-31T12:09:18.197Z,96478.53
2022-10-31T12:12:09.549Z,96480.81
2022-10-31T12:14:49.513Z,96478.75
2022-10-31T12:17:20.999Z,96471.84
2022-10-31T12:20:01.418Z,96475.50
2022-10-31T12:22:38.394Z,96459.25
2022-10-31T12:25:22.433Z,96456.44
2022-10-31T12:28:11.090Z,96453.06
2022-10-31T12:30:56.721Z,96452.03
2022-10-31T12:33:54.126Z,96450.66
2022-10-31T12:36:37.165Z,96449.09
2022-10-31T12:39:25.465Z,96448.00
2022-10-31T12:41:58.895Z,96434.31
2022-10-31T12:45:04.939Z,96437.91
2022-10-31T12:47:57.936Z,96434.47
2022-10-31T12:50:37.045Z,96432.50
2022-10-31T12:53:20.662Z,96427.59
2022-10-31T12:56:00.995Z,96419.53
2022-10-31T12:58:33.669Z,96422.09
2022-10-31T13:01:11.429Z,96421.38
2022-10-31T13:03:47.941Z,96416.31
2022-10-31T13:06:21.229Z,96414.13
2022-10-31T13:08:53.221Z,96414.81
2022-10-31T13:11:26.051Z,96408.25
2022-10-31T13:14:02.742Z,96408.81
2022-10-31T13:16:33.662Z,96411.72
2022-10-31T13:19:08.342Z,96402.19
2022-10-31T13:21:40.286Z,96400.13
2022-10-31T13:24:14.660Z,96396.16
2022-10-31T13:26:48.220Z,96400.13
2022-10-31T13:29:23.797Z,96391.16
2022-10-31T13:31:53.570Z,96383.81
2022-10-31T13:34:29.896Z,96392.47
2022-10-31T13:37:06.093Z,96383.09
2022-10-31T13:39:50.025Z,96375.75
2022-10-31T13:42:24.293Z,96376.16
2022-10-31T13:44:52.022Z,96362.34
2022-10-31T13:47:26.982Z,96369.56
2022-10-31T13:50:20.991Z,96372.09
2022-10-31T13:52:48.766Z,96360.94
2022-10-31T13:55:39.135Z,96367.00
2022-10-31T13:58:21.295Z,96360.13
2022-10-31T14:01:01.049Z,96362.72
2022-10-31T14:03:50.219Z,96367.19
2022-10-31T14:06:18.824Z,96363.50
2022-10-31T14:08:51.789Z,96358.56
2022-10-31T14:11:30.332Z,96355.56
2022-10-31T14:14:03.020Z,96347.91
2022-10-31T14:16:33.642Z,96337.97
2022-10-31T14:19:06.460Z,96340.44
2022-10-31T14:21:40.675Z,96337.91
2022-10-31T14:24:17.374Z,96339.22
2022-10-31T14:26:55.242Z,96344.88
2022-10-31T14:29:26.466Z,96338.09
2022-10-31T14:31:57.124Z,96331.84
2022-10-31T14:34:28.314Z,96327.44
2022-10-31T14:37:16.038Z,96334.38
2022-10-31T14:39:56.265Z,96330.53
2022-10-31T14:42:37.745Z,96323.75
2022-10-31T14:45:20.299Z,96321.28
2022-10-31T14:47:56.457Z,96318.81
2022-10-31T14:50:34.470Z,96316.31
2022-10-31T14:53:06.253Z,96318.06
2022-10-31T14:55:34.862Z,96309.00
2022-10-31T14:58:05.468Z,96319.38
2022-10-31T15:00:34.996Z,96317.72
2022-10-31T15:03:14.310Z,96309.53
2022-10-31T15:05:49.530Z,96307.06
2022-10-31T15:08:34.560Z,96303.34
2022-10-31T15:11:11.131Z,96300.06
2022-10-31T15:13:44.536Z,96298.81
2022-10-31T15:16:14.935Z,96296.34
2022-10-31T15:18:50.793Z,96295.94
2022-10-31T15:21:21.257Z,96293.88
2022-10-31T15:23:53.624Z,96293.34
2022-10-31T15:26:24.390Z,96283.59
2022-10-31T15:29:03.264Z,96288.94
2022-10-31T15:31:32.428Z,96280.22
2022-10-31T15:34:05.447Z,96280.56
2022-10-31T15:36:37.436Z,96282.38
2022-10-31T15:39:07.548Z,96284.50
2022-10-31T15:41:39.411Z,96290.53
2022-10-31T15:44:15.822Z,96295.09
2022-10-31T15:46:43.627Z,96285.13
2022-10-31T15:49:30.798Z,96282.09
2022-10-31T15:52:00.773Z,96281.88
2022-10-31T15:54:30.570Z,96290.50
2022-10-31T15:56:58.335Z,96287.13
2022-10-31T15:59:29.531Z,96278.75
2022-10-31T16:02:04.141Z,96280.56
2022-10-31T16:04:32.098Z,96284.22
2022-10-31T16:07:02.608Z,96276.97
2022-10-31T16:09:31.835Z,96276.19
2022-10-31T16:12:00.533Z,96274.25
2022-10-31T16:14:31.829Z,96275.50
2022-10-31T16:17:01.309Z,96272.88
2022-10-31T16:19:31.944Z,96274.59
2022-10-31T16:22:07.209Z,96277.09
2022-10-31T16:24:45.303Z,96270.59
2022-10-31T16:27:20.397Z,96269.22
2022-10-31T16:29:49.175Z,96278.72
2022-10-31T16:32:27.892Z,96280.09
2022-10-31T16:35:04.195Z,96280.75
2022-10-31T16:37:31.902Z,96278.25
2022-10-31T16:40:01.018Z,96278.00
2022-10-31T16:42:29.072Z,96286.72
2022-10-31T16:44:56.858Z,96284.56
2022-10-31T16:47:27.571Z,96271.03
2022-10-31T16:50:00.683Z,96267.06
2022-10-31T16:52:37.912Z,96267.72
2022-10-31T16:55:15.081Z,96273.56
2022-10-31T16:57:46.127Z,96271.84
2022-10-31T17:00:19.589Z,96277.56
2022-10-31T17:02:49.779Z,96281.53
2022-10-31T17:05:20.421Z,96289.88
2022-10-31T17:07:48.179Z,96290.75
2022-10-31T17:10:18.603Z,96284.84
2022-10-31T17:12:49.116Z,96288.75
2022-10-31T17:15:19.888Z,96280.66
2022-10-31T17:17:47.655Z,96291.63
2022-10-31T17:20:21.902Z,96294.34
2022-10-31T17:22:49.965Z,96298.22
2022-10-31T17:25:22.616Z,96296.66
2022-10-31T17:27:50.401Z,96299.50
2022-10-31T17:30:19.577Z,96294.00
2022-10-31T17:32:48.336Z,96296.91
2022-10-31T17:35:17.622Z,96296.44
2022-10-31T17:37:46.516Z,96282.25
2022-10-31T17:40:16.489Z,96293.91
2022-10-31T17:42:50.144Z,96285.16
2022-10-31T17:45:17.925Z,96290.59
2022-10-31T17:47:47.795Z,96282.00
2022-10-31T17:50:17.662Z,96291.38
2022-10-31T17:52:45.532Z,96272.06
2022-10-31T17:55:14.312Z,96277.50
2022-10-31T17:57:42.407Z,96278.63
2022-10-31T18:00:14.764Z,96283.88
2022-10-31T18:02:42.588Z,96285.53
2022-10-31T18:05:10.969Z,96283.78
2022-10-31T18:07:38.742Z,96293.19
2022-10-31T18:10:07.576Z,96301.94
2022-10-31T18:12:36.533Z,96292.72
2022-10-31T18:15:04.827Z,96295.25
2022-10-31T18:17:35.845Z,96291.59
2022-10-31T18:20:06.889Z,96296.06
2022-10-31T18:22:34.671Z,96285.38
2022-10-31T18:25:02.804Z,96290.97
2022-10-31T18:27:30.626Z,96296.53
2022-10-31T18:29:58.322Z,96289.22
2022-10-31T18:32:25.999Z,96294.28
2022-10-31T18:34:55.044Z,96285.22
2022-10-31T18:37:22.714Z,96287.59
2022-10-31T18:39:50.481Z,96295.44
2022-10-31T18:42:18.197Z,96298.44
2022-10-31T18:44:45.849Z,96291.91
2022-10-31T18:47:13.531Z,96291.75
2022-10-31T18:49:41.194Z,96286.97
2022-10-31T18:52:10.221Z,96281.72
2022-10-31T18:54:38.118Z,96273.91
2022-10-31T18:57:05.829Z,96285.22
2022-10-31T18:59:33.518Z,96282.38
2022-10-31T19:02:01.326Z,96272.94
2022-10-31T19:04:29.399Z,96268.00
2022-10-31T19:06:57.417Z,96273.75
2022-10-31T19:09:26.643Z,96273.41
2022-10-31T19:11:54.351Z,96266.25
2022-10-31T19:14:22.045Z,96265.47
2022-10-31T19:16:52.371Z,96264.50
2022-10-31T19:19:20.913Z,96264.97
2022-10-31T19:21:48.745Z,96249.69
2022-10-31T19:24:16.407Z,96256.06
2022-10-31T19:26:45.462Z,96254.63
2022-10-31T19:29:13.361Z,96255.28
2022-10-31T19:31:41.123Z,96261.31
2022-10-31T19:34:08.832Z,96260.06
2022-10-31T19:36:37.085Z,96271.50
2022-10-31T19:39:04.913Z,96267.22
2022-10-31T19:41:32.626Z,96264.00
2022-10-31T19:44:02.093Z,96262.91
2022-10-31T19:49:17.574Z,96276.44
2022-10-31T19:51:45.288Z,96274.97
2022-10-31T19:54:13.402Z,96282.13
2022-10-31T19:56:41.362Z,96261.94
2022-10-31T19:59:10.671Z,96266.22
2022-10-31T20:01:38.464Z,96261.59
2022-10-31T20:04:06.872Z,96258.28
2022-10-31T20:06:37.105Z,96258.28
2022-10-31T20:09:09.640Z,96256.22
2022-10-31T20:11:38.994Z,96254.47
2022-10-31T20:14:07.909Z,96255.25
2022-10-31T20:16:37.183Z,96254.47
2022-10-31T20:19:05.720Z,96251.94
2022-10-31T20:21:37.641Z,96248.56
2022-10-31T20:24:11.018Z,96253.69
2022-10-31T20:26:40.623Z,96248.41
2022-10-31T20:29:08.686Z,96245.72
2022-10-31T20:31:37.861Z,96253.81
2022-10-31T20:34:05.609Z,96254.63
2022-10-31T20:36:33.739Z,96252.09
2022-10-31T20:39:01.587Z,96250.97
2022-10-31T20:41:29.794Z,96258.78
2022-10-31T20:43:59.034Z,96255.75
2022-10-31T20:46:28.407Z,96252.56
2022-10-31T20:48:57.802Z,96254.16
2022-10-31T20:51:28.412Z,96250.97
2022-10-31T20:53:57.600Z,96243.78
2022-10-31T20:56:27.153Z,96242.88
2022-10-31T20:58:56.047Z,96250.31
2022-10-31T21:01:25.760Z,96251.75
2022-10-31T21:03:53.991Z,96255.25
2022-10-31T21:06:23.783Z,96248.72
2022-10-31T21:08:53.741Z,96248.41
2022-10-31T21:11:24.100Z,96258.28
2022-10-31T21:13:52.581Z,96257.13
2022-10-31T21:16:22.488Z,96258.25
2022-10-31T21:18:51.410Z,96253.63
2022-10-31T21:21:20.920Z,96251.25
2022-10-31T21:23:55.294Z,96250.13
2022-10-31T21:26:24.587Z,96250.75
2022-10-31T21:28:56.620Z,96245.34
2022-10-31T21:31:24.870Z,96238.66
2022-10-31T21:33:53.832Z,96242.16
2022-10-31T21:36:21.645Z,96239.28
2022-10-31T21:38:52.612Z,96244.19
2022-10-31T21:41:21.502Z,96250.72
2022-10-31T21:43:51.211Z,96253.88
2022-10-31T21:46:21.037Z,96241.28
2022-10-31T21:48:49.357Z,96255.31
2022-10-31T21:51:19.118Z,96256.09
2022-10-31T21:54:04.909Z,96266.72
2022-10-31T21:56:34.229Z,96252.75
2022-10-31T21:59:02.274Z,96252.09
2022-10-31T22:01:30.856Z,96262.63
2022-10-31T22:03:59.842Z,96268.50
2022-10-31T22:06:29.897Z,96257.88
2022-10-31T22:08:59.776Z,96248.00
2022-10-31T22:11:28.966Z,96245.31
2022-10-31T22:14:00.533Z,96243.41
2022-10-31T22:16:30.204Z,96250.22
2022-10-31T22:19:05.211Z,96241.00
2022-10-31T22:21:37.748Z,96241.81
2022-10-31T22:24:07.756Z,96242.75
2022-10-31T22:26:36.300Z,96261.69
2022-10-31T22:29:07.166Z,96271.38
2022-10-31T22:31:38.253Z,96262.44
2022-10-31T22:34:05.993Z,96253.34
2022-10-31T22:36:34.127Z,96271.81
2022-10-31T22:39:02.234Z,96269.09
2022-10-31T22:41:31.972Z,96274.81
2022-10-31T22:44:00.408Z,96280.84
2022-10-31T22:46:32.548Z,96280.97
2022-10-31T22:49:02.181Z,96283.38
2022-10-31T22:51:31.972Z,96286.88
2022-10-31T22:54:00.262Z,96283.84
2022-10-31T22:56:30.078Z,96284.16
2022-10-31T22:58:58.689Z,96282.25
2022-10-31T23:01:28.163Z,96283.66
2022-10-31T23:03:57.519Z,96291.47
2022-10-31T23:06:27.546Z,96292.91
2022-10-31T23:08:55.832Z,96296.38
2022-10-31T23:11:25.308Z,96289.41
2022-10-31T23:14:09.593Z,96294.47
2022-10-31T23:16:41.727Z,96288.59
2022-10-31T23:19:12.068Z,96292.53
2022-10-31T23:21:54.963Z,96288.84
2022-10-31T23:24:29.306Z,96292.47
2022-10-31T23:27:07.613Z,96296.09
2022-10-31T23:29:37.869Z,96295.31
2022-10-31T23:32:06.896Z,96280.22
2022-10-31T23:34:35.993Z,96280.22
2022-10-31T23:37:04.024Z,96279.91
2022-10-31T23:39:31.787Z,96272.25
2022-10-31T23:41:59.698Z,96276.75
2022-10-31T23:44:27.550Z,96270.22
2022-10-31T23:46:55.404Z,96269.13
2022-10-31T23:49:23.085Z,96262.94
2022-10-31T23:51:52.331Z,96257.34
2022-10-31T23:54:20.110Z,96252.56
2022-10-31T23:56:47.868Z,96261.78
2022-10-31T23:59:15.602Z,96264.16
